sensor_id;sensor_type;location;lat;lon;timestamp;P1;durP1;ratioP1;P2;durP2;ratioP2
21274;SDS011;36472;52.170;20.884;2023-04-24T00:00:52;10.80;;;9.13;;
21274;SDS011;36472;52.170;20.884;2023-04-24T00:03:25;11.70;;;9.38;;
21274;SDS011;36472;52.170;20.884;2023-04-24T00:05:56;11.32;;;9.45;;
21274;SDS011;36472;52.170;20.884;2023-04-24T00:08:26;11.98;;;9.45;;
21274;SDS011;36472;52.170;20.884;2023-04-24T00:10:54;11.63;;;10.15;;
21274;SDS011;36472;52.170;20.884;2023-04-24T00:13:23;10.43;;;9.30;;
21274;SDS011;36472;52.170;20.884;2023-04-24T00:15:52;11.15;;;9.85;;
21274;SDS011;36472;52.170;20.884;2023-04-24T00:18:21;15.00;;;10.23;;
21274;SDS011;36472;52.170;20.884;2023-04-24T00:20:51;14.48;;;10.10;;
21274;SDS011;36472;52.170;20.884;2023-04-24T00:23:20;10.50;;;9.40;;
21274;SDS011;36472;52.170;20.884;2023-04-24T00:25:49;13.75;;;10.63;;
21274;SDS011;36472;52.170;20.884;2023-04-24T00:28:18;12.27;;;10.10;;
21274;SDS011;36472;52.170;20.884;2023-04-24T00:30:47;13.48;;;10.27;;
21274;SDS011;36472;52.170;20.884;2023-04-24T00:33:16;12.18;;;9.57;;
21274;SDS011;36472;52.170;20.884;2023-04-24T00:35:44;13.07;;;9.63;;
21274;SDS011;36472;52.170;20.884;2023-04-24T00:38:15;13.07;;;10.10;;
21274;SDS011;36472;52.170;20.884;2023-04-24T00:40:43;12.70;;;10.13;;
21274;SDS011;36472;52.170;20.884;2023-04-24T00:43:14;12.32;;;9.85;;
21274;SDS011;36472;52.170;20.884;2023-04-24T00:45:43;13.30;;;10.50;;
21274;SDS011;36472;52.170;20.884;2023-04-24T00:48:12;11.45;;;10.13;;
21274;SDS011;36472;52.170;20.884;2023-04-24T00:50:42;12.00;;;10.38;;
21274;SDS011;36472;52.170;20.884;2023-04-24T00:53:15;12.15;;;9.85;;
21274;SDS011;36472;52.170;20.884;2023-04-24T00:55:43;13.00;;;10.48;;
21274;SDS011;36472;52.170;20.884;2023-04-24T00:58:13;12.73;;;10.50;;
21274;SDS011;36472;52.170;20.884;2023-04-24T01:00:42;12.43;;;10.40;;
21274;SDS011;36472;52.170;20.884;2023-04-24T01:03:13;10.80;;;9.75;;
21274;SDS011;36472;52.170;20.884;2023-04-24T01:05:43;12.55;;;10.10;;
21274;SDS011;36472;52.170;20.884;2023-04-24T01:08:13;14.25;;;10.73;;
21274;SDS011;36472;52.170;20.884;2023-04-24T01:10:43;13.60;;;10.80;;
21274;SDS011;36472;52.170;20.884;2023-04-24T01:13:14;13.00;;;10.25;;
21274;SDS011;36472;52.170;20.884;2023-04-24T01:15:44;12.15;;;10.05;;
21274;SDS011;36472;52.170;20.884;2023-04-24T01:18:13;14.80;;;10.63;;
21274;SDS011;36472;52.170;20.884;2023-04-24T01:20:43;12.85;;;10.60;;
21274;SDS011;36472;52.170;20.884;2023-04-24T01:23:16;13.68;;;10.10;;
21274;SDS011;36472;52.170;20.884;2023-04-24T01:25:45;12.75;;;10.98;;
21274;SDS011;36472;52.170;20.884;2023-04-24T01:28:14;14.38;;;11.02;;
21274;SDS011;36472;52.170;20.884;2023-04-24T01:30:43;13.93;;;10.82;;
21274;SDS011;36472;52.170;20.884;2023-04-24T01:33:13;12.77;;;10.65;;
21274;SDS011;36472;52.170;20.884;2023-04-24T01:35:42;13.15;;;11.20;;
21274;SDS011;36472;52.170;20.884;2023-04-24T01:38:11;13.73;;;11.00;;
21274;SDS011;36472;52.170;20.884;2023-04-24T01:40:41;13.70;;;10.50;;
21274;SDS011;36472;52.170;20.884;2023-04-24T01:43:11;12.27;;;10.98;;
21274;SDS011;36472;52.170;20.884;2023-04-24T01:45:40;12.50;;;11.00;;
21274;SDS011;36472;52.170;20.884;2023-04-24T01:48:10;12.15;;;10.20;;
21274;SDS011;36472;52.170;20.884;2023-04-24T01:50:40;12.95;;;10.23;;
21274;SDS011;36472;52.170;20.884;2023-04-24T01:53:11;13.05;;;10.85;;
21274;SDS011;36472;52.170;20.884;2023-04-24T01:55:42;13.43;;;10.32;;
21274;SDS011;36472;52.170;20.884;2023-04-24T01:58:12;13.95;;;10.82;;
21274;SDS011;36472;52.170;20.884;2023-04-24T02:00:41;14.85;;;11.43;;
21274;SDS011;36472;52.170;20.884;2023-04-24T02:03:10;13.38;;;10.52;;
21274;SDS011;36472;52.170;20.884;2023-04-24T02:05:39;14.60;;;11.48;;
21274;SDS011;36472;52.170;20.884;2023-04-24T02:08:11;16.40;;;11.27;;
21274;SDS011;36472;52.170;20.884;2023-04-24T02:10:40;13.48;;;11.25;;
21274;SDS011;36472;52.170;20.884;2023-04-24T02:13:11;13.27;;;10.70;;
21274;SDS011;36472;52.170;20.884;2023-04-24T02:15:40;11.73;;;10.52;;
21274;SDS011;36472;52.170;20.884;2023-04-24T02:18:09;14.55;;;11.50;;
21274;SDS011;36472;52.170;20.884;2023-04-24T02:20:39;12.13;;;10.82;;
21274;SDS011;36472;52.170;20.884;2023-04-24T02:23:08;13.18;;;11.15;;
21274;SDS011;36472;52.170;20.884;2023-04-24T02:25:37;12.73;;;11.43;;
21274;SDS011;36472;52.170;20.884;2023-04-24T02:28:08;13.98;;;11.05;;
21274;SDS011;36472;52.170;20.884;2023-04-24T02:30:37;12.65;;;10.90;;
21274;SDS011;36472;52.170;20.884;2023-04-24T02:33:06;13.55;;;10.88;;
21274;SDS011;36472;52.170;20.884;2023-04-24T02:35:35;12.52;;;10.48;;
21274;SDS011;36472;52.170;20.884;2023-04-24T02:38:04;13.43;;;10.43;;
21274;SDS011;36472;52.170;20.884;2023-04-24T02:40:33;11.75;;;10.30;;
21274;SDS011;36472;52.170;20.884;2023-04-24T02:43:02;13.80;;;10.75;;
21274;SDS011;36472;52.170;20.884;2023-04-24T02:45:32;13.20;;;11.30;;
21274;SDS011;36472;52.170;20.884;2023-04-24T02:48:01;13.15;;;10.57;;
21274;SDS011;36472;52.170;20.884;2023-04-24T02:50:30;13.98;;;11.00;;
21274;SDS011;36472;52.170;20.884;2023-04-24T02:53:00;15.55;;;11.52;;
21274;SDS011;36472;52.170;20.884;2023-04-24T02:55:29;13.85;;;11.15;;
21274;SDS011;36472;52.170;20.884;2023-04-24T02:57:58;12.57;;;11.25;;
21274;SDS011;36472;52.170;20.884;2023-04-24T03:00:26;14.15;;;11.30;;
21274;SDS011;36472;52.170;20.884;2023-04-24T03:02:57;13.07;;;10.77;;
21274;SDS011;36472;52.170;20.884;2023-04-24T03:05:26;13.82;;;11.38;;
21274;SDS011;36472;52.170;20.884;2023-04-24T03:07:55;13.25;;;11.07;;
21274;SDS011;36472;52.170;20.884;2023-04-24T03:10:24;14.50;;;10.35;;
21274;SDS011;36472;52.170;20.884;2023-04-24T03:12:53;13.52;;;11.18;;
21274;SDS011;36472;52.170;20.884;2023-04-24T03:15:22;14.27;;;12.15;;
21274;SDS011;36472;52.170;20.884;2023-04-24T03:17:51;13.40;;;11.70;;
21274;SDS011;36472;52.170;20.884;2023-04-24T03:20:24;14.25;;;11.63;;
21274;SDS011;36472;52.170;20.884;2023-04-24T03:22:55;14.38;;;11.52;;
21274;SDS011;36472;52.170;20.884;2023-04-24T03:25:25;15.40;;;11.52;;
21274;SDS011;36472;52.170;20.884;2023-04-24T03:27:54;13.95;;;12.05;;
21274;SDS011;36472;52.170;20.884;2023-04-24T03:30:38;13.38;;;11.52;;
21274;SDS011;36472;52.170;20.884;2023-04-24T03:33:08;15.52;;;11.48;;
21274;SDS011;36472;52.170;20.884;2023-04-24T03:35:45;13.38;;;11.50;;
21274;SDS011;36472;52.170;20.884;2023-04-24T03:38:14;15.65;;;12.10;;
21274;SDS011;36472;52.170;20.884;2023-04-24T03:40:59;14.27;;;11.95;;
21274;SDS011;36472;52.170;20.884;2023-04-24T03:43:43;14.18;;;11.20;;
21274;SDS011;36472;52.170;20.884;2023-04-24T03:46:11;15.63;;;11.57;;
21274;SDS011;36472;52.170;20.884;2023-04-24T03:48:47;15.00;;;11.32;;
21274;SDS011;36472;52.170;20.884;2023-04-24T03:51:19;15.60;;;12.35;;
21274;SDS011;36472;52.170;20.884;2023-04-24T03:53:52;13.68;;;11.73;;
21274;SDS011;36472;52.170;20.884;2023-04-24T03:56:23;13.23;;;11.43;;
21274;SDS011;36472;52.170;20.884;2023-04-24T03:58:52;14.30;;;12.07;;
21274;SDS011;36472;52.170;20.884;2023-04-24T04:01:22;15.73;;;11.10;;
21274;SDS011;36472;52.170;20.884;2023-04-24T04:03:58;14.70;;;11.82;;
21274;SDS011;36472;52.170;20.884;2023-04-24T04:06:30;15.73;;;11.40;;
21274;SDS011;36472;52.170;20.884;2023-04-24T04:09:00;17.13;;;11.20;;
21274;SDS011;36472;52.170;20.884;2023-04-24T04:11:30;13.75;;;11.75;;
21274;SDS011;36472;52.170;20.884;2023-04-24T04:13:59;15.63;;;11.20;;
21274;SDS011;36472;52.170;20.884;2023-04-24T04:16:28;14.07;;;10.80;;
21274;SDS011;36472;52.170;20.884;2023-04-24T04:19:02;13.50;;;10.85;;
21274;SDS011;36472;52.170;20.884;2023-04-24T04:21:32;13.50;;;10.63;;
21274;SDS011;36472;52.170;20.884;2023-04-24T04:24:19;15.90;;;11.15;;
21274;SDS011;36472;52.170;20.884;2023-04-24T04:26:49;15.65;;;11.15;;
21274;SDS011;36472;52.170;20.884;2023-04-24T04:29:26;13.35;;;11.15;;
21274;SDS011;36472;52.170;20.884;2023-04-24T04:31:55;15.02;;;10.68;;
21274;SDS011;36472;52.170;20.884;2023-04-24T04:34:26;12.38;;;10.27;;
21274;SDS011;36472;52.170;20.884;2023-04-24T04:36:57;13.88;;;10.18;;
21274;SDS011;36472;52.170;20.884;2023-04-24T04:39:54;14.90;;;10.63;;
21274;SDS011;36472;52.170;20.884;2023-04-24T04:42:25;15.23;;;11.05;;
21274;SDS011;36472;52.170;20.884;2023-04-24T04:44:55;14.30;;;11.07;;
21274;SDS011;36472;52.170;20.884;2023-04-24T04:47:34;17.00;;;10.68;;
21274;SDS011;36472;52.170;20.884;2023-04-24T04:50:04;12.10;;;10.40;;
21274;SDS011;36472;52.170;20.884;2023-04-24T04:52:35;16.23;;;11.30;;
21274;SDS011;36472;52.170;20.884;2023-04-24T04:55:15;14.48;;;10.52;;
21274;SDS011;36472;52.170;20.884;2023-04-24T04:58:20;12.25;;;10.10;;
21274;SDS011;36472;52.170;20.884;2023-04-24T05:00:54;13.98;;;10.57;;
21274;SDS011;36472;52.170;20.884;2023-04-24T05:03:28;14.40;;;10.93;;
21274;SDS011;36472;52.170;20.884;2023-04-24T05:06:03;14.60;;;10.65;;
21274;SDS011;36472;52.170;20.884;2023-04-24T05:08:37;14.38;;;11.05;;
21274;SDS011;36472;52.170;20.884;2023-04-24T05:11:09;14.93;;;10.60;;
21274;SDS011;36472;52.170;20.884;2023-04-24T05:13:39;12.45;;;10.38;;
21274;SDS011;36472;52.170;20.884;2023-04-24T05:16:13;14.88;;;10.82;;
21274;SDS011;36472;52.170;20.884;2023-04-24T05:18:42;13.45;;;10.50;;
21274;SDS011;36472;52.170;20.884;2023-04-24T05:21:14;13.43;;;10.23;;
21274;SDS011;36472;52.170;20.884;2023-04-24T05:23:49;11.95;;;9.93;;
21274;SDS011;36472;52.170;20.884;2023-04-24T05:26:38;13.30;;;10.63;;
21274;SDS011;36472;52.170;20.884;2023-04-24T05:29:08;15.20;;;10.88;;
21274;SDS011;36472;52.170;20.884;2023-04-24T05:31:37;13.27;;;10.90;;
21274;SDS011;36472;52.170;20.884;2023-04-24T05:34:06;12.00;;;10.10;;
21274;SDS011;36472;52.170;20.884;2023-04-24T05:36:39;12.85;;;10.65;;
21274;SDS011;36472;52.170;20.884;2023-04-24T05:39:09;14.90;;;11.10;;
21274;SDS011;36472;52.170;20.884;2023-04-24T05:41:38;14.10;;;10.15;;
21274;SDS011;36472;52.170;20.884;2023-04-24T05:44:07;16.38;;;10.38;;
21274;SDS011;36472;52.170;20.884;2023-04-24T05:46:36;14.93;;;10.18;;
21274;SDS011;36472;52.170;20.884;2023-04-24T05:49:05;13.15;;;10.10;;
21274;SDS011;36472;52.170;20.884;2023-04-24T05:51:34;14.10;;;10.90;;
21274;SDS011;36472;52.170;20.884;2023-04-24T05:54:03;15.70;;;10.40;;
21274;SDS011;36472;52.170;20.884;2023-04-24T05:56:34;14.38;;;10.38;;
21274;SDS011;36472;52.170;20.884;2023-04-24T05:59:04;14.52;;;10.57;;
21274;SDS011;36472;52.170;20.884;2023-04-24T06:01:34;13.13;;;9.63;;
21274;SDS011;36472;52.170;20.884;2023-04-24T06:04:14;13.13;;;9.90;;
21274;SDS011;36472;52.170;20.884;2023-04-24T06:06:43;16.30;;;10.32;;
21274;SDS011;36472;52.170;20.884;2023-04-24T06:09:13;12.57;;;9.95;;
21274;SDS011;36472;52.170;20.884;2023-04-24T06:11:43;14.32;;;10.02;;
21274;SDS011;36472;52.170;20.884;2023-04-24T06:14:13;12.23;;;9.80;;
21274;SDS011;36472;52.170;20.884;2023-04-24T06:17:12;12.57;;;9.57;;
21274;SDS011;36472;52.170;20.884;2023-04-24T06:19:41;14.10;;;9.95;;
21274;SDS011;36472;52.170;20.884;2023-04-24T06:22:11;16.25;;;10.27;;
21274;SDS011;36472;52.170;20.884;2023-04-24T06:24:40;13.05;;;9.40;;
21274;SDS011;36472;52.170;20.884;2023-04-24T06:27:11;14.88;;;10.13;;
21274;SDS011;36472;52.170;20.884;2023-04-24T06:29:41;14.70;;;9.68;;
21274;SDS011;36472;52.170;20.884;2023-04-24T06:32:11;13.80;;;9.20;;
21274;SDS011;36472;52.170;20.884;2023-04-24T06:34:40;15.50;;;9.38;;
21274;SDS011;36472;52.170;20.884;2023-04-24T06:37:09;12.50;;;9.20;;
21274;SDS011;36472;52.170;20.884;2023-04-24T06:39:38;13.35;;;8.57;;
21274;SDS011;36472;52.170;20.884;2023-04-24T06:42:07;14.32;;;9.43;;
21274;SDS011;36472;52.170;20.884;2023-04-24T06:44:37;17.15;;;9.77;;
21274;SDS011;36472;52.170;20.884;2023-04-24T06:47:08;14.15;;;9.18;;
21274;SDS011;36472;52.170;20.884;2023-04-24T06:49:40;16.42;;;9.82;;
21274;SDS011;36472;52.170;20.884;2023-04-24T06:52:10;12.63;;;8.85;;
21274;SDS011;36472;52.170;20.884;2023-04-24T06:54:39;12.88;;;9.88;;
21274;SDS011;36472;52.170;20.884;2023-04-24T06:57:09;11.38;;;8.73;;
21274;SDS011;36472;52.170;20.884;2023-04-24T06:59:40;9.90;;;8.50;;
21274;SDS011;36472;52.170;20.884;2023-04-24T07:02:09;14.60;;;9.75;;
21274;SDS011;36472;52.170;20.884;2023-04-24T07:04:38;13.00;;;8.50;;
21274;SDS011;36472;52.170;20.884;2023-04-24T07:07:08;12.75;;;9.10;;
21274;SDS011;36472;52.170;20.884;2023-04-24T07:09:40;11.25;;;9.00;;
21274;SDS011;36472;52.170;20.884;2023-04-24T07:12:11;12.48;;;8.88;;
21274;SDS011;36472;52.170;20.884;2023-04-24T07:14:41;16.85;;;8.45;;
21274;SDS011;36472;52.170;20.884;2023-04-24T07:17:10;11.82;;;8.80;;
21274;SDS011;36472;52.170;20.884;2023-04-24T07:19:40;10.75;;;8.00;;
21274;SDS011;36472;52.170;20.884;2023-04-24T07:22:10;11.80;;;8.82;;
21274;SDS011;36472;52.170;20.884;2023-04-24T07:24:43;10.15;;;8.40;;
21274;SDS011;36472;52.170;20.884;2023-04-24T07:27:13;11.80;;;8.30;;
21274;SDS011;36472;52.170;20.884;2023-04-24T07:29:43;12.25;;;9.13;;
21274;SDS011;36472;52.170;20.884;2023-04-24T07:32:13;12.30;;;9.35;;
21274;SDS011;36472;52.170;20.884;2023-04-24T07:34:41;12.30;;;8.20;;
21274;SDS011;36472;52.170;20.884;2023-04-24T07:37:11;13.20;;;9.50;;
21274;SDS011;36472;52.170;20.884;2023-04-24T07:39:39;14.88;;;9.13;;
21274;SDS011;36472;52.170;20.884;2023-04-24T07:42:09;13.52;;;10.40;;
21274;SDS011;36472;52.170;20.884;2023-04-24T07:44:38;15.57;;;9.88;;
21274;SDS011;36472;52.170;20.884;2023-04-24T07:47:08;12.85;;;8.68;;
21274;SDS011;36472;52.170;20.884;2023-04-24T07:49:37;14.48;;;9.25;;
21274;SDS011;36472;52.170;20.884;2023-04-24T07:52:07;13.95;;;8.70;;
21274;SDS011;36472;52.170;20.884;2023-04-24T07:54:35;12.48;;;8.75;;
21274;SDS011;36472;52.170;20.884;2023-04-24T07:57:05;12.98;;;9.65;;
21274;SDS011;36472;52.170;20.884;2023-04-24T07:59:35;10.88;;;9.25;;
21274;SDS011;36472;52.170;20.884;2023-04-24T08:02:06;11.50;;;8.43;;
21274;SDS011;36472;52.170;20.884;2023-04-24T08:04:37;10.52;;;9.30;;
21274;SDS011;36472;52.170;20.884;2023-04-24T08:07:06;11.10;;;9.25;;
21274;SDS011;36472;52.170;20.884;2023-04-24T08:09:35;12.45;;;9.52;;
21274;SDS011;36472;52.170;20.884;2023-04-24T08:12:05;10.88;;;8.57;;
21274;SDS011;36472;52.170;20.884;2023-04-24T08:14:33;10.50;;;8.25;;
21274;SDS011;36472;52.170;20.884;2023-04-24T08:17:03;12.10;;;8.80;;
21274;SDS011;36472;52.170;20.884;2023-04-24T08:19:33;16.42;;;9.50;;
21274;SDS011;36472;52.170;20.884;2023-04-24T08:22:02;11.32;;;9.10;;
21274;SDS011;36472;52.170;20.884;2023-04-24T08:24:31;13.48;;;9.85;;
21274;SDS011;36472;52.170;20.884;2023-04-24T08:27:00;12.98;;;9.27;;
21274;SDS011;36472;52.170;20.884;2023-04-24T08:29:28;10.32;;;9.18;;
21274;SDS011;36472;52.170;20.884;2023-04-24T08:31:58;10.95;;;8.88;;
21274;SDS011;36472;52.170;20.884;2023-04-24T08:34:26;12.77;;;8.30;;
21274;SDS011;36472;52.170;20.884;2023-04-24T08:36:57;10.18;;;8.32;;
21274;SDS011;36472;52.170;20.884;2023-04-24T08:39:26;11.70;;;8.57;;
21274;SDS011;36472;52.170;20.884;2023-04-24T08:41:55;12.57;;;9.23;;
21274;SDS011;36472;52.170;20.884;2023-04-24T08:44:24;9.73;;;8.35;;
21274;SDS011;36472;52.170;20.884;2023-04-24T08:46:53;10.45;;;8.63;;
21274;SDS011;36472;52.170;20.884;2023-04-24T08:49:22;10.73;;;9.43;;
21274;SDS011;36472;52.170;20.884;2023-04-24T08:51:55;11.63;;;8.75;;
21274;SDS011;36472;52.170;20.884;2023-04-24T08:54:26;10.98;;;8.90;;
21274;SDS011;36472;52.170;20.884;2023-04-24T08:56:57;12.27;;;9.18;;
21274;SDS011;36472;52.170;20.884;2023-04-24T08:59:31;11.15;;;9.15;;
21274;SDS011;36472;52.170;20.884;2023-04-24T09:02:00;12.75;;;9.25;;
21274;SDS011;36472;52.170;20.884;2023-04-24T09:04:31;14.77;;;9.15;;
21274;SDS011;36472;52.170;20.884;2023-04-24T09:07:04;9.85;;;8.23;;
21274;SDS011;36472;52.170;20.884;2023-04-24T09:09:38;12.65;;;8.18;;
21274;SDS011;36472;52.170;20.884;2023-04-24T09:12:09;9.95;;;7.40;;
21274;SDS011;36472;52.170;20.884;2023-04-24T09:14:38;8.93;;;7.95;;
21274;SDS011;36472;52.170;20.884;2023-04-24T09:17:12;8.95;;;7.70;;
21274;SDS011;36472;52.170;20.884;2023-04-24T09:19:41;10.25;;;7.63;;
21274;SDS011;36472;52.170;20.884;2023-04-24T09:22:11;8.70;;;7.55;;
21274;SDS011;36472;52.170;20.884;2023-04-24T09:24:40;8.52;;;7.47;;
21274;SDS011;36472;52.170;20.884;2023-04-24T09:27:10;8.85;;;7.32;;
21274;SDS011;36472;52.170;20.884;2023-04-24T09:29:52;7.63;;;6.93;;
21274;SDS011;36472;52.170;20.884;2023-04-24T09:32:24;6.70;;;6.07;;
21274;SDS011;36472;52.170;20.884;2023-04-24T09:35:05;8.55;;;7.22;;
21274;SDS011;36472;52.170;20.884;2023-04-24T09:37:39;7.10;;;6.50;;
21274;SDS011;36472;52.170;20.884;2023-04-24T09:40:11;8.27;;;6.22;;
21274;SDS011;36472;52.170;20.884;2023-04-24T09:42:45;7.68;;;6.18;;
21274;SDS011;36472;52.170;20.884;2023-04-24T09:45:19;8.02;;;7.00;;
21274;SDS011;36472;52.170;20.884;2023-04-24T09:47:51;7.85;;;6.43;;
21274;SDS011;36472;52.170;20.884;2023-04-24T09:50:21;8.57;;;6.50;;
21274;SDS011;36472;52.170;20.884;2023-04-24T09:52:58;6.93;;;6.32;;
21274;SDS011;36472;52.170;20.884;2023-04-24T09:55:32;8.38;;;6.40;;
21274;SDS011;36472;52.170;20.884;2023-04-24T09:58:13;6.75;;;6.07;;
21274;SDS011;36472;52.170;20.884;2023-04-24T10:00:41;6.50;;;5.65;;
21274;SDS011;36472;52.170;20.884;2023-04-24T10:03:11;8.73;;;6.72;;
21274;SDS011;36472;52.170;20.884;2023-04-24T10:05:41;8.55;;;6.40;;
21274;SDS011;36472;52.170;20.884;2023-04-24T10:08:12;8.82;;;6.63;;
21274;SDS011;36472;52.170;20.884;2023-04-24T10:10:48;9.45;;;6.65;;
21274;SDS011;36472;52.170;20.884;2023-04-24T10:13:17;7.78;;;6.45;;
21274;SDS011;36472;52.170;20.884;2023-04-24T10:15:46;6.65;;;6.03;;
21274;SDS011;36472;52.170;20.884;2023-04-24T10:18:21;6.80;;;6.20;;
21274;SDS011;36472;52.170;20.884;2023-04-24T10:20:56;9.45;;;5.95;;
21274;SDS011;36472;52.170;20.884;2023-04-24T10:23:34;6.80;;;5.53;;
21274;SDS011;36472;52.170;20.884;2023-04-24T10:26:04;6.43;;;5.70;;
21274;SDS011;36472;52.170;20.884;2023-04-24T10:28:36;7.40;;;6.30;;
21274;SDS011;36472;52.170;20.884;2023-04-24T10:31:05;7.30;;;6.60;;
21274;SDS011;36472;52.170;20.884;2023-04-24T10:33:51;7.65;;;6.85;;
21274;SDS011;36472;52.170;20.884;2023-04-24T10:36:22;7.45;;;6.05;;
21274;SDS011;36472;52.170;20.884;2023-04-24T10:38:57;10.90;;;7.45;;
21274;SDS011;36472;52.170;20.884;2023-04-24T10:41:31;9.18;;;6.75;;
21274;SDS011;36472;52.170;20.884;2023-04-24T10:44:05;7.30;;;6.40;;
21274;SDS011;36472;52.170;20.884;2023-04-24T10:46:34;8.02;;;6.45;;
21274;SDS011;36472;52.170;20.884;2023-04-24T10:49:06;7.85;;;7.00;;
21274;SDS011;36472;52.170;20.884;2023-04-24T10:51:46;7.68;;;6.78;;
21274;SDS011;36472;52.170;20.884;2023-04-24T10:54:26;7.20;;;6.47;;
21274;SDS011;36472;52.170;20.884;2023-04-24T11:00:13;9.02;;;6.28;;
21274;SDS011;36472;52.170;20.884;2023-04-24T11:02:47;6.35;;;5.47;;
21274;SDS011;36472;52.170;20.884;2023-04-24T11:05:20;6.50;;;5.20;;
21274;SDS011;36472;52.170;20.884;2023-04-24T11:10:55;5.75;;;5.10;;
21274;SDS011;36472;52.170;20.884;2023-04-24T11:13:28;7.53;;;5.47;;
21274;SDS011;36472;52.170;20.884;2023-04-24T11:16:38;5.85;;;5.30;;
21274;SDS011;36472;52.170;20.884;2023-04-24T11:19:18;9.07;;;5.20;;
21274;SDS011;36472;52.170;20.884;2023-04-24T11:21:58;6.57;;;5.95;;
21274;SDS011;36472;52.170;20.884;2023-04-24T11:24:36;6.65;;;5.55;;
21274;SDS011;36472;52.170;20.884;2023-04-24T11:27:17;7.00;;;6.30;;
21274;SDS011;36472;52.170;20.884;2023-04-24T11:29:48;7.80;;;6.05;;
21274;SDS011;36472;52.170;20.884;2023-04-24T11:32:34;6.65;;;5.60;;
21274;SDS011;36472;52.170;20.884;2023-04-24T11:35:06;6.53;;;5.78;;
21274;SDS011;36472;52.170;20.884;2023-04-24T11:37:42;7.80;;;6.00;;
21274;SDS011;36472;52.170;20.884;2023-04-24T11:40:33;8.18;;;6.18;;
21274;SDS011;36472;52.170;20.884;2023-04-24T11:43:05;9.90;;;6.85;;
21274;SDS011;36472;52.170;20.884;2023-04-24T11:45:36;6.70;;;6.10;;
21274;SDS011;36472;52.170;20.884;2023-04-24T11:48:05;7.22;;;6.15;;
21274;SDS011;36472;52.170;20.884;2023-04-24T11:50:34;6.90;;;6.18;;
21274;SDS011;36472;52.170;20.884;2023-04-24T11:53:03;11.88;;;7.10;;
21274;SDS011;36472;52.170;20.884;2023-04-24T11:55:32;7.20;;;6.25;;
21274;SDS011;36472;52.170;20.884;2023-04-24T11:58:02;7.88;;;6.60;;
21274;SDS011;36472;52.170;20.884;2023-04-24T12:00:33;9.23;;;6.80;;
21274;SDS011;36472;52.170;20.884;2023-04-24T12:03:03;7.80;;;6.43;;
21274;SDS011;36472;52.170;20.884;2023-04-24T12:05:35;10.07;;;6.43;;
21274;SDS011;36472;52.170;20.884;2023-04-24T12:08:04;7.22;;;6.53;;
21274;SDS011;36472;52.170;20.884;2023-04-24T12:10:34;7.32;;;6.40;;
21274;SDS011;36472;52.170;20.884;2023-04-24T12:13:04;7.72;;;5.95;;
21274;SDS011;36472;52.170;20.884;2023-04-24T12:15:39;7.70;;;6.40;;
21274;SDS011;36472;52.170;20.884;2023-04-24T12:18:11;9.35;;;6.38;;
21274;SDS011;36472;52.170;20.884;2023-04-24T12:20:40;7.75;;;6.30;;
21274;SDS011;36472;52.170;20.884;2023-04-24T12:23:09;7.45;;;6.18;;
21274;SDS011;36472;52.170;20.884;2023-04-24T12:25:38;7.43;;;6.70;;
21274;SDS011;36472;52.170;20.884;2023-04-24T12:28:10;8.38;;;6.72;;
21274;SDS011;36472;52.170;20.884;2023-04-24T12:30:41;7.15;;;6.43;;
21274;SDS011;36472;52.170;20.884;2023-04-24T12:33:13;8.23;;;7.03;;
21274;SDS011;36472;52.170;20.884;2023-04-24T12:35:47;8.68;;;6.97;;
21274;SDS011;36472;52.170;20.884;2023-04-24T12:38:21;9.50;;;5.65;;
21274;SDS011;36472;52.170;20.884;2023-04-24T12:41:01;14.48;;;5.03;;
21274;SDS011;36472;52.170;20.884;2023-04-24T12:43:33;9.95;;;4.22;;
21274;SDS011;36472;52.170;20.884;2023-04-24T12:46:03;9.20;;;4.22;;
21274;SDS011;36472;52.170;20.884;2023-04-24T12:48:33;4.55;;;3.38;;
21274;SDS011;36472;52.170;20.884;2023-04-24T12:51:02;10.73;;;4.10;;
21274;SDS011;36472;52.170;20.884;2023-04-24T12:53:31;7.25;;;3.70;;
21274;SDS011;36472;52.170;20.884;2023-04-24T12:56:00;8.18;;;3.30;;
21274;SDS011;36472;52.170;20.884;2023-04-24T12:58:29;8.02;;;3.55;;
21274;SDS011;36472;52.170;20.884;2023-04-24T13:00:59;6.55;;;3.28;;
21274;SDS011;36472;52.170;20.884;2023-04-24T13:03:28;5.93;;;3.30;;
21274;SDS011;36472;52.170;20.884;2023-04-24T13:05:57;7.65;;;3.13;;
21274;SDS011;36472;52.170;20.884;2023-04-24T13:08:26;3.78;;;3.10;;
21274;SDS011;36472;52.170;20.884;2023-04-24T13:10:55;3.70;;;3.33;;
21274;SDS011;36472;52.170;20.884;2023-04-24T13:13:24;6.40;;;3.70;;
21274;SDS011;36472;52.170;20.884;2023-04-24T13:15:53;3.78;;;3.47;;
21274;SDS011;36472;52.170;20.884;2023-04-24T13:18:24;4.60;;;3.40;;
21274;SDS011;36472;52.170;20.884;2023-04-24T13:20:52;4.85;;;3.60;;
21274;SDS011;36472;52.170;20.884;2023-04-24T13:23:21;3.88;;;3.47;;
21274;SDS011;36472;52.170;20.884;2023-04-24T13:25:50;4.53;;;3.70;;
21274;SDS011;36472;52.170;20.884;2023-04-24T13:28:22;7.38;;;4.53;;
21274;SDS011;36472;52.170;20.884;2023-04-24T13:30:51;4.70;;;3.70;;
21274;SDS011;36472;52.170;20.884;2023-04-24T13:33:20;5.97;;;3.60;;
21274;SDS011;36472;52.170;20.884;2023-04-24T13:35:50;5.15;;;3.75;;
21274;SDS011;36472;52.170;20.884;2023-04-24T13:38:19;3.85;;;3.55;;
21274;SDS011;36472;52.170;20.884;2023-04-24T13:40:49;4.10;;;3.70;;
21274;SDS011;36472;52.170;20.884;2023-04-24T13:43:18;4.32;;;3.92;;
21274;SDS011;36472;52.170;20.884;2023-04-24T13:45:47;4.55;;;3.83;;
21274;SDS011;36472;52.170;20.884;2023-04-24T13:48:16;4.35;;;3.90;;
21274;SDS011;36472;52.170;20.884;2023-04-24T13:50:45;4.68;;;3.70;;
21274;SDS011;36472;52.170;20.884;2023-04-24T13:53:16;5.32;;;3.90;;
21274;SDS011;36472;52.170;20.884;2023-04-24T13:55:45;4.20;;;3.40;;
21274;SDS011;36472;52.170;20.884;2023-04-24T13:58:14;4.75;;;3.65;;
21274;SDS011;36472;52.170;20.884;2023-04-24T14:00:43;3.60;;;3.28;;
21274;SDS011;36472;52.170;20.884;2023-04-24T14:03:12;4.05;;;3.65;;
21274;SDS011;36472;52.170;20.884;2023-04-24T14:05:41;4.00;;;3.60;;
21274;SDS011;36472;52.170;20.884;2023-04-24T14:08:10;4.80;;;3.45;;
21274;SDS011;36472;52.170;20.884;2023-04-24T14:10:40;3.88;;;3.58;;
21274;SDS011;36472;52.170;20.884;2023-04-24T14:13:10;4.05;;;3.65;;
21274;SDS011;36472;52.170;20.884;2023-04-24T14:15:39;5.85;;;4.00;;
21274;SDS011;36472;52.170;20.884;2023-04-24T14:18:08;4.80;;;3.90;;
21274;SDS011;36472;52.170;20.884;2023-04-24T14:20:37;5.15;;;4.38;;
21274;SDS011;36472;52.170;20.884;2023-04-24T14:23:07;4.18;;;3.78;;
21274;SDS011;36472;52.170;20.884;2023-04-24T14:25:35;4.22;;;3.85;;
21274;SDS011;36472;52.170;20.884;2023-04-24T14:28:06;6.22;;;4.07;;
21274;SDS011;36472;52.170;20.884;2023-04-24T14:30:36;6.63;;;4.47;;
21274;SDS011;36472;52.170;20.884;2023-04-24T14:33:07;5.85;;;3.63;;
21274;SDS011;36472;52.170;20.884;2023-04-24T14:35:36;4.85;;;3.65;;
21274;SDS011;36472;52.170;20.884;2023-04-24T14:38:05;3.78;;;3.33;;
21274;SDS011;36472;52.170;20.884;2023-04-24T14:40:33;3.65;;;3.35;;
21274;SDS011;36472;52.170;20.884;2023-04-24T14:43:24;4.03;;;3.63;;
21274;SDS011;36472;52.170;20.884;2023-04-24T14:45:53;4.40;;;3.28;;
21274;SDS011;36472;52.170;20.884;2023-04-24T14:48:22;5.18;;;3.22;;
21274;SDS011;36472;52.170;20.884;2023-04-24T14:50:50;3.88;;;3.47;;